Time;durP1;ratioP1;P1;durP2;ratioP2;P2;SDS_P1;SDS_P2;PMS_P1;PMS_P2;Temp;Humidity;BMP_temperature;BMP_pressure;BME280_temperature;BME280_humidity;BME280_pressure;Samples;Min_cycle;Max_cycle;Signal;HPM_P1;HPM_P2
2021/09/26 00:02:19;;;;;;;39.45;26.15;;;;;;;13.54;95.61;101264.78;5012958;28;20030;-62
2021/09/26 00:04:44;;;;;;;44.70;27.65;;;;;;;13.63;97.17;101267.44;5022733;28;20046;-62
2021/09/26 00:07:10;;;;;;;39.95;26.73;;;;;;;13.57;97.04;101259.47;5023391;28;20111;-62
2021/09/26 00:09:35;;;;;;;44.55;30.67;;;;;;;13.68;98.34;101259.47;5013105;28;20477;-61
2021/09/26 00:12:01;;;;;;;44.03;28.95;;;;;;;13.59;98.96;101255.91;5011879;28;20452;-62
2021/09/26 00:14:27;;;;;;;43.83;27.33;;;;;;;13.67;99.31;101255.91;5013404;28;20037;-63
2021/09/26 00:16:54;;;;;;;42.53;26.67;;;;;;;13.64;99.65;101249.72;5024348;28;20091;-63
2021/09/26 00:19:20;;;;;;;54.33;36.83;;;;;;;13.77;100.00;101252.38;5021250;28;20330;-61
2021/09/26 00:21:45;;;;;;;43.28;28.92;;;;;;;13.78;100.00;101250.59;5023517;28;20100;-69
2021/09/26 00:24:10;;;;;;;42.03;29.10;;;;;;;13.86;99.92;101248.81;5022821;28;20416;-62
2021/09/26 00:26:36;;;;;;;43.70;28.92;;;;;;;13.95;99.96;101240.78;5022523;28;20030;-62
2021/09/26 00:29:01;;;;;;;41.92;28.50;;;;;;;14.03;99.03;101242.53;5022838;28;20057;-62
2021/09/26 00:31:26;;;;;;;45.30;30.77;;;;;;;14.13;99.37;101236.28;5012537;28;20057;-62
2021/09/26 00:33:51;;;;;;;44.00;29.60;;;;;;;14.13;99.57;101239.81;5012677;28;20017;-63
2021/09/26 00:36:17;;;;;;;44.50;29.90;;;;;;;14.21;100.00;101239.81;5020707;28;20078;-62
2021/09/26 00:38:42;;;;;;;44.40;31.38;;;;;;;14.15;100.00;101241.59;5012884;28;20032;-63
2021/09/26 00:41:07;;;;;;;46.25;29.42;;;;;;;14.13;100.00;101241.59;5023221;28;20026;-63
2021/09/26 00:43:35;;;;;;;47.13;29.95;;;;;;;14.08;100.00;101249.59;5022042;28;20045;-63
2021/09/26 00:46:01;;;;;;;45.72;30.25;;;;;;;14.03;100.00;101258.47;5012473;28;20034;-62
2021/09/26 00:48:26;;;;;;;45.10;30.40;;;;;;;13.91;100.00;101254.97;5021447;28;20022;-63
2021/09/26 00:50:52;;;;;;;43.33;28.15;;;;;;;14.03;100.00;101258.47;5023872;28;20445;-62
2021/09/26 00:53:20;;;;;;;43.45;29.45;;;;;;;13.89;100.00;101255.84;5012149;28;20037;-62
2021/09/26 00:55:46;;;;;;;43.25;29.33;;;;;;;13.87;100.00;101255.00;5012610;28;20022;-63
2021/09/26 00:58:12;;;;;;;43.08;28.92;;;;;;;13.86;100.00;101251.47;5023529;28;20044;-63
2021/09/26 01:00:37;;;;;;;43.97;28.95;;;;;;;13.94;100.00;101246.09;5020886;28;20026;-62
2021/09/26 01:03:02;;;;;;;45.05;28.67;;;;;;;13.94;100.00;101244.31;5012515;28;20081;-62
2021/09/26 01:05:28;;;;;;;39.15;27.42;;;;;;;13.89;100.00;101239.91;5016157;28;20029;-63
2021/09/26 01:08:22;;;;;;;41.58;27.15;;;;;;;13.92;100.00;101248.78;5024535;28;20389;-63
2021/09/26 01:11:10;;;;;;;45.17;29.80;;;;;;;13.93;100.00;101237.22;5021502;28;20034;-62
2021/09/26 01:13:56;;;;;;;42.20;28.17;;;;;;;13.94;100.00;101244.31;5025183;28;20443;-63
2021/09/26 01:16:28;;;;;;;40.45;27.38;;;;;;;13.85;100.00;101244.38;5026874;28;20029;-63
2021/09/26 01:18:53;;;;;;;44.33;29.42;;;;;;;13.87;100.00;101247.88;5016059;28;20045;-63
2021/09/26 01:21:37;;;;;;;41.55;28.27;;;;;;;13.83;100.00;101248.78;5024662;28;20034;-61
2021/09/26 01:24:29;;;;;;;43.38;29.05;;;;;;;13.85;100.00;101232.84;5025793;28;20391;-64
2021/09/26 01:27:12;;;;;;;42.97;27.95;;;;;;;13.84;100.00;101236.41;5023165;28;20030;-63
2021/09/26 01:29:58;;;;;;;43.83;30.42;;;;;;;13.81;100.00;101237.28;5024687;28;20029;-62
2021/09/26 01:32:26;;;;;;;41.42;28.25;;;;;;;13.72;100.00;101224.03;5026824;28;20033;-63
2021/09/26 01:34:55;;;;;;;41.63;27.33;;;;;;;13.77;100.00;101219.56;5024845;28;20076;-63
2021/09/26 01:37:30;;;;;;;40.83;27.38;;;;;;;13.63;100.00;101227.59;5026768;28;20032;-64
2021/09/26 01:40:06;;;;;;;43.15;28.10;;;;;;;13.58;100.00;101216.97;5015915;28;20412;-63
2021/09/26 01:42:38;;;;;;;42.20;28.27;;;;;;;13.59;100.00;101217.88;5015496;28;20464;-63
2021/09/26 01:45:06;;;;;;;46.83;29.85;;;;;;;13.52;100.00;101219.63;5015677;28;20034;-63
2021/09/26 01:47:40;;;;;;;51.75;43.95;;;;;;;13.57;100.00;101219.63;5015612;28;20018;-64
2021/09/26 01:50:09;;;;;;;44.17;29.90;;;;;;;13.63;100.00;101218.72;5015397;28;20041;-62
2021/09/26 01:52:37;;;;;;;43.92;30.13;;;;;;;13.73;100.00;101215.16;5015758;28;20022;-63
2021/09/26 01:55:04;;;;;;;43.42;28.80;;;;;;;13.69;100.00;101206.31;5015274;28;20564;-66
2021/09/26 01:57:31;;;;;;;44.58;30.52;;;;;;;13.68;100.00;101199.22;5023846;28;20030;-63
2021/09/26 02:00:01;;;;;;;47.47;32.28;;;;;;;13.77;100.00;101209.84;5025679;28;20083;-62
2021/09/26 02:02:27;;;;;;;47.05;32.78;;;;;;;13.85;100.00;101200.94;5015455;28;20036;-63
2021/09/26 02:05:00;;;;;;;46.38;32.15;;;;;;;13.85;100.00;101207.16;5024497;28;20030;-64
2021/09/26 02:07:41;;;;;;;98.55;62.70;;;;;;;14.01;100.00;101202.69;5026010;28;20029;-63
2021/09/26 02:10:08;;;;;;;45.75;31.23;;;;;;;14.03;100.00;101205.31;5026877;28;20125;-61
2021/09/26 02:12:34;;;;;;;45.00;31.08;;;;;;;14.08;100.00;101204.41;5025260;28;20048;-63
2021/09/26 02:15:04;;;;;;;48.25;31.13;;;;;;;14.13;100.00;101212.38;5013747;28;20030;-66
2021/09/26 02:17:30;;;;;;;45.83;31.73;;;;;;;14.11;100.00;101203.50;5025169;28;20120;-62
2021/09/26 02:20:02;;;;;;;47.20;31.67;;;;;;;14.13;100.00;101201.72;5025866;28;20049;-61
2021/09/26 02:22:32;;;;;;;43.20;30.83;;;;;;;14.11;100.00;101198.19;5014979;28;20030;-62
2021/09/26 02:25:03;;;;;;;46.65;30.95;;;;;;;14.14;100.00;101206.16;5015364;28;20025;-64
2021/09/26 02:27:30;;;;;;;43.30;29.75;;;;;;;14.15;100.00;101207.91;5025111;28;20168;-61
2021/09/26 02:29:55;;;;;;;46.25;31.55;;;;;;;14.05;100.00;101192.91;5025600;28;20465;-64
2021/09/26 02:32:21;;;;;;;44.95;31.55;;;;;;;14.12;100.00;101197.28;5015270;28;20037;-60
2021/09/26 02:34:46;;;;;;;44.22;29.75;;;;;;;14.16;100.00;101199.06;5015233;28;20156;-63
2021/09/26 02:37:12;;;;;;;42.60;30.25;;;;;;;14.11;100.00;101208.81;5014874;28;20477;-66
2021/09/26 02:39:37;;;;;;;46.17;32.25;;;;;;;14.04;100.00;101209.75;5015140;28;20531;-66
2021/09/26 02:42:25;;;;;;;45.03;32.33;;;;;;;14.03;100.00;101221.28;5025408;28;20127;-67
2021/09/26 02:45:01;;;;;;;46.50;33.13;;;;;;;14.03;100.00;101221.28;5020976;28;20140;-67
2021/09/26 02:47:33;;;;;;;48.50;34.28;;;;;;;14.06;100.00;101226.56;5025214;28;20025;-67
2021/09/26 02:50:00;;;;;;;47.75;32.67;;;;;;;14.21;100.00;101221.19;5024475;28;20034;-67
2021/09/26 02:52:26;;;;;;;44.25;31.00;;;;;;;14.18;100.00;101215.88;5025322;28;20365;-67
2021/09/26 02:54:52;;;;;;;44.85;31.65;;;;;;;14.23;100.00;101224.72;5014901;28;20036;-67
2021/09/26 02:57:17;;;;;;;44.13;30.55;;;;;;;14.23;100.00;101219.41;5022924;28;20384;-66
2021/09/26 02:59:43;;;;;;;45.63;30.15;;;;;;;14.30;100.00;101221.16;5026367;28;20112;-67
2021/09/26 03:02:09;;;;;;;43.67;29.85;;;;;;;14.30;100.00;101215.81;5023326;28;20026;-66
2021/09/26 03:04:46;;;;;;;42.45;29.60;;;;;;;14.33;100.00;101214.03;5024941;28;20029;-67
2021/09/26 03:07:12;;;;;;;45.35;29.60;;;;;;;14.29;100.00;101208.72;5021420;28;20026;-65
2021/09/26 03:09:38;;;;;;;44.10;28.88;;;;;;;14.28;100.00;101214.97;5014651;28;20033;-66
2021/09/26 03:12:18;;;;;;;45.00;30.42;;;;;;;14.28;100.00;101208.75;5014248;28;20018;-66
2021/09/26 03:14:43;;;;;;;45.92;30.80;;;;;;;14.33;100.00;101208.72;5025899;28;20030;-65
2021/09/26 03:17:09;;;;;;;45.60;31.10;;;;;;;14.30;100.00;101212.28;5023051;28;20029;-66
2021/09/26 03:19:34;;;;;;;46.08;31.40;;;;;;;14.29;100.00;101214.03;5024937;28;20053;-65
2021/09/26 03:22:01;;;;;;;44.88;31.27;;;;;;;14.33;100.00;101208.72;5023941;28;20109;-66
2021/09/26 03:24:27;;;;;;;43.20;30.05;;;;;;;14.36;100.00;101208.69;5023728;28;20022;-61
2021/09/26 03:26:54;;;;;;;45.53;30.70;;;;;;;14.32;100.00;101213.16;5024498;28;20033;-60
2021/09/26 03:29:19;;;;;;;45.15;31.23;;;;;;;14.35;100.00;101212.25;5014007;28;20508;-60
2021/09/26 03:31:44;;;;;;;46.33;31.63;;;;;;;14.37;100.00;101213.13;5022024;28;20029;-61
2021/09/26 03:34:10;;;;;;;45.97;31.67;;;;;;;14.44;100.00;101214.88;5014087;28;20044;-61
2021/09/26 03:36:35;;;;;;;44.30;32.05;;;;;;;14.39;100.00;101214.03;5024441;28;20037;-61
2021/09/26 03:39:00;;;;;;;48.60;32.58;;;;;;;14.47;100.00;101222.81;5024044;28;20044;-61
2021/09/26 03:41:26;;;;;;;44.22;31.55;;;;;;;14.44;100.00;101217.53;5023037;28;20458;-63
2021/09/26 03:43:51;;;;;;;45.25;32.50;;;;;;;14.38;100.00;101213.13;5024566;28;20050;-61
2021/09/26 03:46:16;;;;;;;48.20;32.95;;;;;;;14.36;100.00;101204.28;5022024;28;20032;-62
2021/09/26 03:48:42;;;;;;;46.33;32.35;;;;;;;14.49;100.00;101205.09;5024965;28;20032;-61
2021/09/26 03:51:07;;;;;;;46.80;32.33;;;;;;;14.47;100.00;101202.44;5022518;28;20033;-62
2021/09/26 03:53:32;;;;;;;46.85;32.80;;;;;;;14.42;100.00;101203.34;5013692;28;20037;-61
2021/09/26 03:55:58;;;;;;;50.35;33.55;;;;;;;14.39;100.00;101198.06;5013554;28;20051;-62
2021/09/26 03:58:23;;;;;;;49.45;33.05;;;;;;;14.46;100.00;101189.16;5013384;28;20044;-62
2021/09/26 04:00:48;;;;;;;50.50;34.25;;;;;;;14.41;100.00;101193.59;5021842;28;20034;-61
2021/09/26 04:03:14;;;;;;;49.17;35.13;;;;;;;14.48;100.00;101188.22;5025064;28;20032;-62
2021/09/26 04:05:39;;;;;;;49.90;34.53;;;;;;;14.48;100.00;101195.34;5022095;28;20374;-60
2021/09/26 04:08:04;;;;;;;47.85;33.22;;;;;;;14.48;100.00;101195.34;5013711;28;20029;-67
2021/09/26 04:10:30;;;;;;;48.50;33.58;;;;;;;14.45;100.00;101198.91;5023202;28;20538;-66
2021/09/26 04:12:55;;;;;;;48.88;34.50;;;;;;;14.43;100.00;101195.38;5024191;28;20017;-67
2021/09/26 04:15:20;;;;;;;48.17;32.60;;;;;;;14.43;100.00;101200.69;5013474;28;20496;-67
2021/09/26 04:17:46;;;;;;;51.08;34.70;;;;;;;14.46;100.00;101194.47;5021311;28;20421;-67
2021/09/26 04:20:12;;;;;;;48.92;33.92;;;;;;;14.55;100.00;101194.41;5013545;28;20369;-65
2021/09/26 04:22:37;;;;;;;48.15;33.55;;;;;;;14.57;100.00;101197.94;5024055;28;20033;-66
2021/09/26 04:25:05;;;;;;;47.95;33.55;;;;;;;14.63;100.00;101192.63;5022845;28;20112;-66
2021/09/26 04:27:31;;;;;;;51.00;34.15;;;;;;;14.58;100.00;101201.50;5023100;28;20026;-67
2021/09/26 04:29:56;;;;;;;48.72;33.50;;;;;;;14.57;100.00;101194.41;5023802;28;20372;-67
2021/09/26 04:32:22;;;;;;;45.90;32.47;;;;;;;14.55;100.00;101198.84;5021587;28;20108;-65
2021/09/26 04:34:49;;;;;;;49.00;32.42;;;;;;;14.56;100.00;101196.19;5024757;28;20040;-66
2021/09/26 04:37:14;;;;;;;46.53;32.97;;;;;;;14.54;100.00;101197.06;5017117;28;20068;-66
2021/09/26 04:39:39;;;;;;;44.92;31.25;;;;;;;14.62;100.00;101201.50;5012873;28;20061;-67
2021/09/26 04:42:06;;;;;;;44.20;30.08;;;;;;;14.60;100.00;101200.56;5012850;28;20080;-66
2021/09/26 04:44:33;;;;;;;46.00;31.15;;;;;;;14.60;100.00;101195.25;5013130;28;20092;-67
2021/09/26 04:46:58;;;;;;;47.13;31.73;;;;;;;14.61;100.00;101199.72;5012761;28;20022;-66
2021/09/26 04:49:28;;;;;;;44.80;31.67;;;;;;;14.59;100.00;101189.94;5012906;28;20072;-66
2021/09/26 04:51:54;;;;;;;47.58;32.30;;;;;;;14.57;100.00;101195.25;5021930;28;20388;-63
2021/09/26 04:54:20;;;;;;;47.00;31.65;;;;;;;14.58;100.00;101197.03;5024116;28;20112;-65
2021/09/26 04:56:45;;;;;;;47.33;31.80;;;;;;;14.63;100.00;101191.72;5013067;28;20120;-63
2021/09/26 04:59:10;;;;;;;50.03;31.52;;;;;;;14.61;100.00;101199.72;5023734;28;20021;-64
2021/09/26 05:01:35;;;;;;;50.28;31.63;;;;;;;14.61;100.00;101198.81;5020784;28;20021;-64
2021/09/26 05:04:01;;;;;;;47.13;31.58;;;;;;;14.64;100.00;101199.69;5022436;28;20061;-65
2021/09/26 05:06:26;;;;;;;48.10;31.02;;;;;;;14.65;100.00;101197.94;5023399;28;20033;-63
2021/09/26 05:08:51;;;;;;;47.70;30.48;;;;;;;14.67;100.00;101200.56;5021621;28;20021;-61
2021/09/26 05:11:17;;;;;;;46.97;31.05;;;;;;;14.67;100.00;101205.91;5024414;28;20033;-62
2021/09/26 05:13:42;;;;;;;47.63;30.27;;;;;;;14.70;100.00;101211.19;5021118;28;20037;-63
2021/09/26 05:16:07;;;;;;;47.28;30.10;;;;;;;14.70;100.00;101209.41;5012776;28;20018;-64
2021/09/26 05:18:33;;;;;;;47.60;30.63;;;;;;;14.69;100.00;101212.94;5022628;28;20080;-65
2021/09/26 05:20:58;;;;;;;48.63;30.55;;;;;;;14.72;100.00;101209.41;5023207;28;20088;-63
2021/09/26 05:23:23;;;;;;;48.92;30.27;;;;;;;14.74;100.00;101205.84;5021629;28;20030;-62
2021/09/26 05:25:49;;;;;;;48.08;31.08;;;;;;;14.72;100.00;101212.06;5024094;28;20029;-65
2021/09/26 05:28:15;;;;;;;50.17;30.15;;;;;;;14.74;100.00;101204.97;5020907;28;20026;-63
2021/09/26 05:30:41;;;;;;;47.28;29.52;;;;;;;14.70;100.00;101213.84;5023892;28;20033;-64
2021/09/26 05:33:06;;;;;;;47.78;31.30;;;;;;;14.72;100.00;101206.72;5021648;28;20358;-62
2021/09/26 05:35:32;;;;;;;48.55;31.45;;;;;;;14.73;100.00;101206.72;5022483;28;20073;-62
2021/09/26 05:37:58;;;;;;;50.53;30.42;;;;;;;14.70;100.00;101205.88;5023304;28;20507;-61
2021/09/26 05:40:24;;;;;;;49.90;31.52;;;;;;;14.66;100.00;101205.00;5012317;28;20105;-62
2021/09/26 05:42:50;;;;;;;50.72;31.17;;;;;;;14.63;100.00;101210.34;5012163;28;20378;-62
2021/09/26 05:45:15;;;;;;;49.58;30.35;;;;;;;14.59;100.00;101209.47;5020787;28;20018;-61
2021/09/26 05:47:41;;;;;;;50.67;30.50;;;;;;;14.57;100.00;101216.53;5012226;28;20495;-62
2021/09/26 05:50:07;;;;;;;50.08;30.58;;;;;;;14.53;100.00;101212.13;5023970;28;20025;-61
2021/09/26 05:52:32;;;;;;;49.03;30.58;;;;;;;14.50;100.00;101212.16;5025565;28;20029;-62
2021/09/26 05:54:58;;;;;;;50.22;31.33;;;;;;;14.46;100.00;101205.13;5015766;28;20033;-62
2021/09/26 05:57:23;;;;;;;54.85;31.38;;;;;;;14.41;100.00;101207.78;5024605;28;20030;-62
2021/09/26 05:59:48;;;;;;;55.55;31.95;;;;;;;14.35;100.00;101201.63;5027275;28;20022;-62
2021/09/26 06:02:22;;;;;;;52.53;30.08;;;;;;;14.33;100.00;101211.38;5023785;28;20466;-62
2021/09/26 06:04:47;;;;;;;51.75;29.90;;;;;;;14.23;100.00;101202.59;5020624;28;20062;-63
2021/09/26 06:07:13;;;;;;;47.22;29.67;;;;;;;14.24;100.00;101207.88;5015648;28;20049;-61
2021/09/26 06:09:38;;;;;;;48.22;29.60;;;;;;;14.28;100.00;101214.97;5015726;28;20416;-62
2021/09/26 06:12:04;;;;;;;49.58;30.85;;;;;;;14.23;100.00;101216.75;5015716;28;20021;-62
2021/09/26 06:14:29;;;;;;;52.88;30.65;;;;;;;14.26;100.00;101219.38;5025006;28;20485;-61
2021/09/26 06:16:55;;;;;;;50.35;30.45;;;;;;;14.31;100.00;101216.69;5026132;28;20472;-65
2021/09/26 06:19:20;;;;;;;47.88;28.65;;;;;;;14.42;100.00;101219.31;5015766;28;20029;-66
2021/09/26 06:21:46;;;;;;;46.25;28.23;;;;;;;14.45;100.00;101219.28;5015196;28;20021;-66
2021/09/26 06:24:12;;;;;;;48.33;27.90;;;;;;;14.55;100.00;101221.00;5015370;28;20081;-61
2021/09/26 06:26:37;;;;;;;46.75;28.73;;;;;;;14.62;100.00;101217.44;5015409;28;20024;-65
2021/09/26 06:29:03;;;;;;;46.33;28.73;;;;;;;14.70;100.00;101219.19;5015136;28;20112;-61
2021/09/26 06:31:29;;;;;;;49.05;29.05;;;;;;;14.72;100.00;101217.38;5015340;28;20118;-65
2021/09/26 06:33:54;;;;;;;47.45;30.15;;;;;;;14.84;100.00;101217.31;5015581;28;20109;-61
2021/09/26 06:36:19;;;;;;;47.97;29.10;;;;;;;14.86;100.00;101223.50;5023446;28;20022;-65
2021/09/26 06:38:45;;;;;;;47.67;29.05;;;;;;;14.97;100.00;101224.28;5023136;28;20080;-61
2021/09/26 06:41:12;;;;;;;49.22;29.00;;;;;;;15.03;100.00;101231.34;5026271;28;20021;-63
2021/09/26 06:43:37;;;;;;;47.30;29.52;;;;;;;15.11;100.00;101231.28;5023890;28;20049;-66
2021/09/26 06:46:03;;;;;;;45.90;27.63;;;;;;;15.23;100.00;101232.97;5015100;28;20496;-67
2021/09/26 06:48:28;;;;;;;48.63;28.90;;;;;;;15.29;100.00;101239.13;5024133;28;20026;-64
2021/09/26 06:50:53;;;;;;;46.97;28.23;;;;;;;15.30;100.00;101238.25;5025862;28;20511;-64
2021/09/26 06:53:19;;;;;;;46.78;28.85;;;;;;;15.31;100.00;101239.09;5023000;28;20106;-67
2021/09/26 06:55:44;;;;;;;47.67;28.42;;;;;;;15.32;100.00;101239.09;5014550;28;20072;-62
2021/09/26 06:58:09;;;;;;;47.17;29.05;;;;;;;15.34;100.00;101242.59;5014440;28;20104;-63
2021/09/26 07:00:35;;;;;;;48.92;29.48;;;;;;;15.43;100.00;101248.75;5025028;28;20092;-66
2021/09/26 07:03:00;;;;;;;49.58;30.90;;;;;;;15.48;100.00;101250.50;5024663;28;20036;-64
2021/09/26 07:05:25;;;;;;;47.92;30.50;;;;;;;15.55;100.00;101248.63;5023652;28;20389;-62
2021/09/26 07:07:51;;;;;;;45.85;29.48;;;;;;;15.63;100.00;101252.09;5026137;28;20021;-61
2021/09/26 07:10:16;;;;;;;45.67;29.85;;;;;;;15.68;100.00;101252.06;5014396;28;20025;-62
2021/09/26 07:12:41;;;;;;;46.83;29.35;;;;;;;15.74;100.00;101252.00;5025371;28;20031;-67
2021/09/26 07:15:08;;;;;;;45.03;30.58;;;;;;;15.84;100.00;101250.16;5023774;28;20022;-61
2021/09/26 07:17:33;;;;;;;44.90;29.08;;;;;;;15.92;100.00;101247.41;5014223;28;20034;-62
2021/09/26 07:19:59;;;;;;;45.80;30.05;;;;;;;16.00;100.00;101242.84;5014348;28;20022;-62
2021/09/26 07:22:24;;;;;;;46.05;29.85;;;;;;;16.09;100.00;101252.53;5023234;28;20121;-63
2021/09/26 07:24:53;;;;;;;44.20;30.10;;;;;;;16.16;100.00;101254.22;5025895;28;20017;-62
2021/09/26 07:27:23;;;;;;;43.55;29.60;;;;;;;16.24;100.00;101254.13;5018817;28;20025;-61
2021/09/26 07:29:49;;;;;;;45.20;30.20;;;;;;;16.30;100.00;101259.41;5025883;28;20384;-62
2021/09/26 07:32:15;;;;;;;45.58;30.58;;;;;;;16.39;100.00;101260.13;5022186;28;20032;-62
2021/09/26 07:34:42;;;;;;;44.95;30.33;;;;;;;16.45;100.00;101272.50;5024867;28;20025;-61
2021/09/26 07:37:08;;;;;;;42.05;28.63;;;;;;;16.54;100.00;101279.50;5023207;28;20052;-61
2021/09/26 07:39:33;;;;;;;42.70;29.10;;;;;;;16.61;100.00;101280.31;5023588;28;20029;-62
2021/09/26 07:41:59;;;;;;;42.65;28.20;;;;;;;16.64;100.00;101280.28;5024384;28;20483;-61
2021/09/26 07:44:24;;;;;;;41.55;28.88;;;;;;;16.70;100.00;101286.44;5014031;28;20108;-61
2021/09/26 07:46:50;;;;;;;42.53;29.30;;;;;;;16.74;100.00;101281.91;5013870;28;20026;-60
2021/09/26 07:49:16;;;;;;;42.13;29.40;;;;;;;16.79;100.00;101280.06;5013885;28;20405;-61
2021/09/26 07:51:41;;;;;;;42.85;29.20;;;;;;;16.85;100.00;101285.31;5024562;28;20025;-62
2021/09/26 07:54:07;;;;;;;42.95;29.85;;;;;;;16.91;100.00;101284.38;5022720;28;20034;-61
2021/09/26 07:56:32;;;;;;;42.08;29.05;;;;;;;16.98;100.00;101277.13;5023587;28;20032;-63
2021/09/26 07:58:58;;;;;;;43.88;30.73;;;;;;;17.01;100.00;101272.66;5024099;28;20088;-65
2021/09/26 08:01:23;;;;;;;44.97;30.73;;;;;;;17.07;100.00;101280.56;5021943;28;20026;-66
2021/09/26 08:03:48;;;;;;;43.20;29.45;;;;;;;17.16;100.00;101278.66;5025326;28;20048;-66
2021/09/26 08:06:16;;;;;;;44.65;29.85;;;;;;;17.27;100.00;101292.72;5021743;28;20044;-63
2021/09/26 08:08:42;;;;;;;42.42;30.17;;;;;;;17.37;100.00;101289.00;5013086;28;20059;-66
2021/09/26 08:11:07;;;;;;;45.22;29.80;;;;;;;17.48;100.00;101286.13;5012000;28;20018;-65
2021/09/26 08:13:32;;;;;;;43.58;29.65;;;;;;;17.55;100.00;101281.56;5013003;28;20444;-65
2021/09/26 08:15:58;;;;;;;41.40;30.05;;;;;;;17.62;100.00;101293.91;5013213;28;20068;-65
2021/09/26 08:18:23;;;;;;;42.08;29.30;;;;;;;17.72;100.00;101290.16;5021875;28;20029;-66
2021/09/26 08:20:48;;;;;;;43.15;29.85;;;;;;;17.84;100.00;101290.81;5024776;28;20025;-67
2021/09/26 08:23:14;;;;;;;48.45;28.77;;;;;;;18.01;100.00;101291.41;5021840;28;20121;-62
2021/09/26 08:25:39;;;;;;;42.20;29.15;;;;;;;18.14;100.00;101301.88;5023826;28;20480;-66
2021/09/26 08:28:05;;;;;;;43.58;27.98;;;;;;;18.22;100.00;101299.94;5022730;28;20022;-65
2021/09/26 08:30:30;;;;;;;40.70;28.13;;;;;;;18.25;100.00;101308.78;5013480;28;20384;-68
2021/09/26 08:32:56;;;;;;;40.83;28.67;;;;;;;18.34;100.00;101302.38;5021956;28;20105;-66
2021/09/26 08:35:21;;;;;;;41.75;29.27;;;;;;;18.45;100.00;101308.38;5024736;28;20427;-64
2021/09/26 08:37:46;;;;;;;42.38;28.83;;;;;;;18.59;100.00;101315.22;5020282;28;20515;-66
2021/09/26 08:40:13;;;;;;;40.38;28.58;;;;;;;18.58;100.00;101309.00;5012816;28;20026;-66
2021/09/26 08:42:39;;;;;;;42.15;29.85;;;;;;;18.58;100.00;101308.09;5012666;28;20393;-65
2021/09/26 08:45:07;;;;;;;41.17;28.98;;;;;;;18.66;97.87;101313.31;5013248;28;20045;-65
2021/09/26 08:47:39;;;;;;;42.63;30.67;;;;;;;18.80;99.38;101314.75;5022426;28;20113;-66
2021/09/26 08:50:05;;;;;;;;;;;;;;;19.03;97.39;101320.53;5022948;28;20533;-66
2021/09/26 08:52:30;;;;;;;41.63;29.63;;;;;;;19.13;96.40;101322.97;5013265;28;19996;-66
2021/09/26 08:54:56;;;;;;;41.25;28.35;;;;;;;19.62;90.48;101320.88;5021426;28;20029;-66
2021/09/26 08:57:22;;;;;;;39.22;28.48;;;;;;;19.98;87.88;101312.78;5024329;28;20119;-63
2021/09/26 08:59:48;;;;;;;37.95;27.50;;;;;;;20.28;84.05;101309.28;5017332;28;20025;-64
2021/09/26 09:02:13;;;;;;;39.88;29.02;;;;;;;20.45;81.79;101320.41;5023798;28;20033;-68
2021/09/26 09:04:41;;;;;;;38.80;29.27;;;;;;;20.40;81.94;101318.78;5022223;28;20033;-69
2021/09/26 09:07:11;;;;;;;39.95;28.80;;;;;;;20.58;80.43;101322.75;5023117;28;20033;-66
2021/09/26 09:09:55;;;;;;;40.60;30.95;;;;;;;20.69;80.81;101321.53;5022065;28;20037;-66
2021/09/26 09:12:28;;;;;;;38.50;27.75;;;;;;;21.20;79.03;101328.00;5024299;28;20025;-67
2021/09/26 09:14:57;;;;;;;39.53;28.92;;;;;;;21.84;74.82;101329.44;5018109;28;20040;-68
2021/09/26 09:17:27;;;;;;;38.00;28.58;;;;;;;22.43;71.83;101335.47;5024253;28;20405;-68
2021/09/26 09:20:16;;;;;;;37.53;27.48;;;;;;;23.08;70.94;101344.63;5012767;28;20053;-69
2021/09/26 09:22:43;;;;;;;39.05;26.88;;;;;;;23.47;66.08;101348.47;5023731;28;20033;-65
2021/09/26 09:25:31;;;;;;;39.45;27.65;;;;;;;22.84;67.55;101342.91;5023183;28;20476;-68
2021/09/26 09:27:58;;;;;;;36.95;26.98;;;;;;;22.42;67.77;101345.34;5022464;28;20030;-69
2021/09/26 09:30:53;;;;;;;39.40;28.13;;;;;;;22.21;70.34;101348.81;5027602;28;20041;-68
2021/09/26 09:33:20;;;;;;;38.45;28.17;;;;;;;22.74;67.93;101339.69;5027741;28;20071;-68
2021/09/26 09:35:47;;;;;;;37.03;26.80;;;;;;;23.37;66.85;101341.69;5024395;28;20428;-69
2021/09/26 09:38:16;;;;;;;38.10;28.48;;;;;;;23.61;63.92;101348.75;5027561;28;20372;-69
2021/09/26 09:40:41;;;;;;;38.85;28.75;;;;;;;23.83;63.12;101345.16;5024859;28;20565;-68
2021/09/26 09:43:07;;;;;;;38.53;28.20;;;;;;;23.99;61.86;101348.09;5026021;28;20137;-69
2021/09/26 09:45:47;;;;;;;38.15;28.55;;;;;;;24.12;63.13;101348.44;5026129;28;20026;-69
2021/09/26 09:48:17;;;;;;;38.38;27.83;;;;;;;24.25;61.28;101330.72;5027027;28;20436;-67
2021/09/26 09:50:49;;;;;;;35.45;26.50;;;;;;;24.55;59.36;101343.75;5024570;28;20543;-68
2021/09/26 09:53:32;;;;;;;;;;;;;;;24.44;61.82;101336.16;5027741;28;20033;-67
2021/09/26 09:55:59;;;;;;;36.28;27.25;;;;;;;24.58;60.25;101338.22;5022122;28;19945;-69
2021/09/26 09:58:25;;;;;;;36.63;27.25;;;;;;;25.29;57.56;101340.25;5027094;28;20030;-68
2021/09/26 10:00:57;;;;;;;36.47;26.73;;;;;;;25.78;56.44;101352.28;5023919;28;20026;-69
2021/09/26 10:03:39;;;;;;;35.33;26.75;;;;;;;26.30;56.81;101346.88;5027088;28;20118;-65
2021/09/26 10:06:22;;;;;;;36.50;25.70;;;;;;;27.10;53.92;101338.84;5025455;28;20101;-69
2021/09/26 10:08:48;;;;;;;35.05;25.63;;;;;;;27.25;51.30;101335.25;5019950;28;20425;-69
2021/09/26 10:11:13;;;;;;;33.80;24.15;;;;;;;27.40;51.40;101340.78;5026831;28;20495;-65
2021/09/26 10:13:39;;;;;;;34.25;24.40;;;;;;;27.59;49.45;101346.84;5023972;28;20034;-69
2021/09/26 10:16:09;;;;;;;32.50;23.02;;;;;;;27.39;49.23;101350.78;5015673;28;20109;-70
2021/09/26 10:18:36;;;;;;;33.65;23.45;;;;;;;27.75;48.67;101348.66;5015590;28;20030;-68
2021/09/26 10:21:03;;;;;;;33.28;22.58;;;;;;;27.97;47.96;101348.22;5015153;28;20079;-65
2021/09/26 10:23:29;;;;;;;32.88;22.90;;;;;;;27.47;48.08;101353.88;5015281;28;20026;-69
2021/09/26 10:25:56;;;;;;;33.08;22.88;;;;;;;26.98;49.95;101345.84;5014443;28;20069;-63
2021/09/26 10:28:26;;;;;;;34.00;23.45;;;;;;;26.62;50.38;101349.66;5024251;28;20026;-64
2021/09/26 10:30:52;;;;;;;34.25;23.13;;;;;;;26.91;49.86;101360.72;5025817;28;20020;-66
2021/09/26 10:33:18;;;;;;;34.25;24.15;;;;;;;26.83;50.60;101358.44;5023650;28;20018;-69
2021/09/26 10:35:44;;;;;;;32.80;23.13;;;;;;;26.66;50.87;101362.06;5026193;28;20583;-68
2021/09/26 10:38:10;;;;;;;35.17;25.73;;;;;;;26.26;50.92;101367.81;5023294;28;20034;-68
2021/09/26 10:40:38;;;;;;;34.88;25.30;;;;;;;26.39;50.29;101361.75;5026352;28;20038;-66
2021/09/26 10:43:25;;;;;;;33.78;23.92;;;;;;;26.28;52.46;101359.59;5023813;28;20060;-67
2021/09/26 10:46:12;;;;;;;36.65;26.35;;;;;;;26.85;51.06;101358.34;5021165;28;20061;-67
2021/09/26 10:48:55;;;;;;;36.47;26.45;;;;;;;27.13;51.29;101365.81;5023276;28;20049;-67
2021/09/26 10:51:46;;;;;;;36.15;26.67;;;;;;;26.05;50.83;101358.13;5021265;28;20029;-67
2021/09/26 10:54:21;;;;;;;36.80;25.73;;;;;;;26.11;52.90;101365.94;5019271;28;20412;-67
2021/09/26 10:56:46;;;;;;;37.15;25.80;;;;;;;27.35;48.77;101370.91;5019634;28;20022;-66
2021/09/26 10:59:13;;;;;;;35.45;25.30;;;;;;;27.58;46.92;101360.53;5026262;28;20025;-67
2021/09/26 11:01:38;;;;;;;36.30;24.73;;;;;;;28.01;46.67;101357.97;5023493;28;20037;-67
2021/09/26 11:04:04;;;;;;;36.97;25.55;;;;;;;28.45;44.84;101361.63;5025062;28;20026;-68
2021/09/26 11:06:30;;;;;;;36.42;25.23;;;;;;;28.15;45.33;101366.16;5024111;28;20517;-66
2021/09/26 11:08:57;;;;;;;36.45;25.55;;;;;;;28.37;44.84;101364.81;5014567;28;20021;-67